< < Back
Terminal Aerodrome Forecast


Current Version              Previous Versions:   1  2  3  4  5  6  7  8  9  

Terminal Aerodrome Forecast

599
FTUS44 KBMX 201400 AAA
TAFMGM
TAF AMD
KMGM 201417Z 2014/2112 03004KT P6SM OVC006
     FM201700 02005KT P6SM BKN025
     FM202000 03005KT P6SM SCT025 BKN060
     FM210800 03004KT 5SM BR OVC010=

Latest METAR

498
SAUS80 KWBC 201600 RRA
MTRMGM
METAR KMGM 201553Z 04005KT 10SM BKN006 OVC026 09/07 A3021 RMK AO2 SLP231
T00940072


USA.gov is the U.S. government's official web portal to all federal, state and local government web resources and services.